Tacoma Narrows Airport
KTIW : now visible

Airfield :











YOU CAN JOIN US ON...

 
LOGIN :

Register | Disclaimer

   EN    FR    IT 

 









Legend :    VFR   Marginal VFR   IFR   Intensive IFR   Very Intensive IFR
Visi :
Ceiling :
>= 8 km
>= 3000ft
5 to 8 km
1000 to 3000 ft
1500m to 5 km
500 to 1000 ft
800 to 1500m
200 to 500 ft
< 800m
< 200 ft
Symbols :   Thunderstorms  Fog  Heavy snow  Heavy precipitations  Wind > 20 kt






- Airport Elevation : 294 ft


KTIW - Tacoma Narrows

CURRENT METAR :
  • 150753Z AUTO 00000KT 5SM BR OVC036 04/04 A3004 RMK AO2 SLP175 T00440039 400670039

EXPIRED METARs :
  • 150730Z AUTO 28003KT 3SM BR OVC037 04/04 A3003 RMK AO2 T00440039
  • 150717Z AUTO 00000KT 1 1/2SM BR OVC038 04/04 A3003 RMK AO2 T00440039
  • 150653Z AUTO 26004KT 5SM BR FEW012 OVC039 04/04 A3003 RMK AO2 SLP171 T00440039
  • 150642Z AUTO 27003KT 4SM BR SCT011 OVC040 04/04 A3003 RMK AO2 T00440039
  • 150623Z AUTO 00000KT 1SM BR OVC039 04/04 A3002 RMK AO2 T00440039
  • 150610Z AUTO 26003KT 2SM BR OVC039 04/03 A3002 RMK AO2 VIS 1 1/2V4 T00390033
  • 150600Z AUTO 00000KT 1/2SM FG OVC039 04/04 A3002 RMK AO2 T00390039
  • 150551Z AUTO 00000KT 1 1/4SM BR FEW026 OVC039 04/04 A3002 RMK AO2

TAF N/A



MET'MAP, your aeronautical weather chart ! - Copyright ORBIFLY December 2007 - Disclaimer

ORBIFLY MET'MAP TEAM :

Programming & Development : Alexandra Zaïnal
Concept & original design : Baudouin d'Aumeries
Assistance for programming : Marc-Olivier Méhu
Technical & hardware support : Manuel Goepfert

Contact : metmap@orbifly.com




SOURCES & CREDITS :

   NOAA       Earth
Advisory